createdAt,value
2024-05-09T00:01:25.369Z,142.48
2024-05-09T00:02:25.539Z,143.96
2024-05-09T00:03:25.564Z,142.60
2024-05-09T00:04:25.671Z,143.29
2024-05-09T00:05:25.782Z,141.93
2024-05-09T00:06:25.793Z,142.31
2024-05-09T00:07:25.892Z,142.98
2024-05-09T00:08:26.078Z,142.91
2024-05-09T00:09:26.063Z,142.18
2024-05-09T00:10:34.594Z,142.02
2024-05-09T00:11:27.256Z,142.11
2024-05-09T00:12:26.353Z,142.30
2024-05-09T00:13:26.197Z,142.16
2024-05-09T00:14:26.344Z,142.56
2024-05-09T00:15:26.210Z,142.80
2024-05-09T00:16:26.219Z,141.56
2024-05-09T00:17:26.375Z,142.91
2024-05-09T00:18:26.374Z,142.19
2024-05-09T00:19:26.341Z,141.38
2024-05-09T00:20:33.249Z,142.54
2024-05-09T00:21:27.237Z,142.62
2024-05-09T00:22:26.256Z,142.54
2024-05-09T00:23:26.335Z,142.79
2024-05-09T00:24:26.304Z,141.72
2024-05-09T00:25:26.287Z,141.23
2024-05-09T00:26:26.295Z,141.64
2024-05-09T00:27:26.281Z,141.09
2024-05-09T00:28:26.269Z,141.27
2024-05-09T00:29:26.388Z,141.77
2024-05-09T00:30:33.331Z,140.95
2024-05-09T00:31:27.377Z,141.03
2024-05-09T00:32:26.681Z,140.98
2024-05-09T00:33:26.711Z,141.46
2024-05-09T00:34:26.502Z,140.60
2024-05-09T00:35:26.522Z,141.27
2024-05-09T00:36:26.412Z,140.75
2024-05-09T00:37:26.396Z,140.83
2024-05-09T00:38:26.469Z,139.36
2024-05-09T00:39:26.414Z,140.44
2024-05-09T00:40:34.497Z,139.93
2024-05-09T00:41:27.640Z,140.00
2024-05-09T00:42:26.499Z,140.21
2024-05-09T00:43:26.471Z,140.30
2024-05-09T00:44:26.593Z,140.02
2024-05-09T00:45:26.478Z,140.92
2024-05-09T00:46:26.489Z,140.14
2024-05-09T00:47:26.775Z,139.62
2024-05-09T00:48:26.843Z,139.34
2024-05-09T00:49:26.732Z,138.40
2024-05-09T00:50:35.319Z,138.96
2024-05-09T00:51:27.526Z,139.07
2024-05-09T00:52:26.527Z,139.32
2024-05-09T00:53:26.566Z,139.55
2024-05-09T00:54:26.545Z,139.20
2024-05-09T00:55:26.589Z,139.96
2024-05-09T00:56:26.688Z,139.68
2024-05-09T00:57:26.612Z,138.61
2024-05-09T00:58:26.583Z,138.55
2024-05-09T00:59:26.827Z,138.50
2024-05-09T01:00:34.627Z,139.12
2024-05-09T01:01:27.614Z,139.17
2024-05-09T01:02:26.735Z,139.23
2024-05-09T01:03:26.986Z,139.26
2024-05-09T01:04:26.648Z,139.29
2024-05-09T01:05:26.635Z,140.42
2024-05-09T01:06:26.571Z,138.49
2024-05-09T01:07:26.571Z,139.35
2024-05-09T01:08:26.598Z,139.38
2024-05-09T01:09:26.593Z,137.62
2024-05-09T01:11:26.739Z,138.11
2024-05-09T01:12:26.813Z,138.21
2024-05-09T01:13:26.737Z,138.54
2024-05-09T01:14:26.919Z,137.59
2024-05-09T01:15:26.830Z,137.27
2024-05-09T01:16:26.872Z,137.16
2024-05-09T01:17:27.002Z,137.83
2024-05-09T01:18:27.067Z,137.00
2024-05-09T01:19:27.032Z,136.74
2024-05-09T01:20:36.948Z,137.02
2024-05-09T01:21:28.063Z,137.12
2024-05-09T01:22:27.023Z,137.26
2024-05-09T01:23:27.042Z,137.30
2024-05-09T01:24:27.004Z,137.71
2024-05-09T01:25:27.005Z,137.68
2024-05-09T01:26:27.066Z,137.83
2024-05-09T01:27:26.990Z,137.60
2024-05-09T01:28:26.974Z,135.68
2024-05-09T01:29:27.048Z,136.13
2024-05-09T01:30:33.852Z,135.24
2024-05-09T01:31:27.940Z,135.38
2024-05-09T01:32:27.096Z,135.57
2024-05-09T01:33:27.275Z,135.84
2024-05-09T01:34:26.903Z,136.52
2024-05-09T01:35:27.029Z,135.83
2024-05-09T01:36:26.882Z,135.82
2024-05-09T01:37:26.888Z,136.08
2024-05-09T01:38:26.922Z,136.94
2024-05-09T01:39:26.869Z,135.07
2024-05-09T01:40:36.303Z,135.84
2024-05-09T01:41:27.886Z,135.91
2024-05-09T01:42:26.845Z,136.05
2024-05-09T01:43:26.822Z,136.43
2024-05-09T01:44:26.822Z,136.36
2024-05-09T01:45:26.788Z,135.99
2024-05-09T01:46:26.776Z,135.76
2024-05-09T01:47:26.995Z,136.12
2024-05-09T01:48:26.966Z,135.77
2024-05-09T01:49:26.858Z,135.93
2024-05-09T01:50:37.378Z,134.86
2024-05-09T01:51:27.752Z,134.93
2024-05-09T01:52:26.738Z,135.19
2024-05-09T01:53:26.756Z,135.19
2024-05-09T01:54:26.747Z,134.96
2024-05-09T01:55:26.741Z,134.41
2024-05-09T01:56:26.746Z,134.80
2024-05-09T01:57:26.703Z,133.59
2024-05-09T01:58:26.702Z,136.07
2024-05-09T01:59:26.782Z,134.82
2024-05-09T02:00:36.312Z,133.15
2024-05-09T02:01:27.722Z,133.25
2024-05-09T02:02:26.705Z,133.61
2024-05-09T02:03:26.811Z,134.19
2024-05-09T02:04:26.772Z,133.95
2024-05-09T02:05:26.694Z,133.75
2024-05-09T02:06:26.649Z,135.01
2024-05-09T02:07:26.657Z,134.10
2024-05-09T02:08:26.689Z,134.41
2024-05-09T02:09:26.611Z,133.76
2024-05-09T02:10:32.284Z,134.08
2024-05-09T02:11:27.672Z,134.16
2024-05-09T02:12:26.701Z,134.39
2024-05-09T02:13:26.628Z,134.71
2024-05-09T02:14:26.852Z,134.50
2024-05-09T02:15:26.602Z,134.64
2024-05-09T02:16:26.621Z,133.75
2024-05-09T02:17:26.862Z,133.55
2024-05-09T02:18:26.732Z,133.96
2024-05-09T02:19:26.720Z,134.44
2024-05-09T02:20:33.517Z,133.28
2024-05-09T02:21:27.597Z,133.36
2024-05-09T02:22:26.595Z,133.57
2024-05-09T02:23:26.605Z,133.62
2024-05-09T02:24:26.567Z,133.87
2024-05-09T02:25:26.579Z,132.63
2024-05-09T02:26:26.638Z,133.65
2024-05-09T02:27:26.579Z,133.75
2024-05-09T02:28:26.580Z,132.64
2024-05-09T02:29:26.679Z,131.34
2024-05-09T02:30:36.248Z,131.73
2024-05-09T02:31:27.675Z,131.82
2024-05-09T02:32:26.804Z,132.22
2024-05-09T02:33:26.861Z,132.36
2024-05-09T02:34:26.717Z,132.20
2024-05-09T02:35:26.851Z,132.77
2024-05-09T02:36:26.697Z,133.08
2024-05-09T02:37:26.679Z,132.02
2024-05-09T02:38:26.770Z,132.91
2024-05-09T02:39:26.691Z,132.03
2024-05-09T02:40:35.115Z,132.38
2024-05-09T02:41:27.782Z,132.47
2024-05-09T02:42:26.686Z,132.42
2024-05-09T02:43:26.726Z,132.91
2024-05-09T02:44:26.820Z,132.39
2024-05-09T02:45:26.706Z,131.58
2024-05-09T02:46:26.712Z,134.00
2024-05-09T02:47:26.842Z,132.02
2024-05-09T02:48:26.844Z,133.23
2024-05-09T02:49:26.813Z,131.09
2024-05-09T02:50:34.363Z,131.64
2024-05-09T02:51:27.754Z,131.71
2024-05-09T02:52:26.789Z,131.84
2024-05-09T02:53:26.830Z,131.71
2024-05-09T02:54:26.750Z,131.82
2024-05-09T02:55:26.790Z,131.38
2024-05-09T02:56:26.852Z,131.83
2024-05-09T02:57:26.816Z,130.97
2024-05-09T02:58:26.826Z,130.61
2024-05-09T02:59:26.906Z,131.32
2024-05-09T03:00:35.161Z,131.03
2024-05-09T03:01:27.891Z,131.15
2024-05-09T03:02:26.912Z,131.28
2024-05-09T03:03:27.507Z,131.08
2024-05-09T03:04:27.459Z,130.82
2024-05-09T03:05:26.879Z,129.10
2024-05-09T03:06:26.845Z,130.76
2024-05-09T03:07:26.872Z,130.44
2024-05-09T03:08:26.982Z,129.66
2024-05-09T03:09:26.831Z,130.94
2024-05-09T03:11:27.040Z,130.76
2024-05-09T03:12:27.106Z,131.02
2024-05-09T03:13:27.204Z,130.19
2024-05-09T03:14:27.195Z,130.74
2024-05-09T03:15:27.158Z,129.86
2024-05-09T03:16:27.193Z,129.13
2024-05-09T03:17:27.425Z,128.51
2024-05-09T03:18:27.460Z,130.46
2024-05-09T03:19:27.598Z,129.36
2024-05-09T03:20:32.978Z,128.87
2024-05-09T03:21:28.563Z,128.98
2024-05-09T03:22:27.582Z,129.07
2024-05-09T03:23:27.603Z,129.15
2024-05-09T03:24:27.560Z,130.17
2024-05-09T03:25:27.554Z,129.59
2024-05-09T03:26:27.674Z,129.03
2024-05-09T03:27:27.580Z,129.28
2024-05-09T03:28:27.595Z,128.84
2024-05-09T03:29:27.691Z,128.67
2024-05-09T03:30:36.028Z,129.02
2024-05-09T03:31:28.596Z,129.07
2024-05-09T03:32:27.837Z,129.09
2024-05-09T03:33:27.779Z,129.73
2024-05-09T03:34:27.648Z,128.95
2024-05-09T03:35:27.667Z,128.77
2024-05-09T03:36:27.630Z,127.84
2024-05-09T03:37:27.623Z,129.35
2024-05-09T03:38:27.730Z,126.54
2024-05-09T03:39:27.621Z,128.46
2024-05-09T03:40:30.845Z,127.61
2024-05-09T03:41:27.688Z,128.68
2024-05-09T03:42:27.664Z,128.93
2024-05-09T03:43:27.654Z,126.54
2024-05-09T03:44:27.711Z,128.06
2024-05-09T03:45:27.640Z,128.21
2024-05-09T03:46:27.660Z,127.46
2024-05-09T03:47:27.973Z,126.67
2024-05-09T03:48:27.826Z,126.85
2024-05-09T03:49:27.751Z,126.86
2024-05-09T03:50:33.703Z,127.06
2024-05-09T03:51:28.686Z,127.17
2024-05-09T03:52:27.720Z,127.38
2024-05-09T03:53:27.786Z,127.99
2024-05-09T03:54:27.713Z,128.21
2024-05-09T03:55:27.680Z,127.44
2024-05-09T03:56:27.793Z,128.52
2024-05-09T03:57:27.689Z,126.28
2024-05-09T03:58:27.698Z,127.30
2024-05-09T03:59:27.843Z,126.76
2024-05-09T04:00:35.248Z,125.79
2024-05-09T04:01:28.765Z,125.88
2024-05-09T04:02:27.770Z,125.88
2024-05-09T04:03:27.932Z,126.46
2024-05-09T04:04:27.724Z,126.33
2024-05-09T04:05:27.735Z,126.99
2024-05-09T04:06:27.723Z,126.80
2024-05-09T04:07:27.697Z,126.69
2024-05-09T04:08:27.706Z,125.65
2024-05-09T04:09:27.709Z,125.84
2024-05-09T04:10:32.807Z,126.60
2024-05-09T04:11:28.838Z,126.70
2024-05-09T04:12:27.867Z,126.71
2024-05-09T04:13:35.015Z,50.00
2024-05-09T04:14:35.058Z,50.00
2024-05-09T04:15:35.018Z,50.00
2024-05-09T04:16:34.997Z,50.00
2024-05-09T04:17:35.134Z,50.00
2024-05-09T04:18:35.095Z,51.72
2024-05-09T04:19:35.051Z,50.00
2024-05-09T04:20:39.026Z,50.53
2024-05-09T04:21:36.010Z,50.67
2024-05-09T04:22:35.213Z,51.00
2024-05-09T04:23:35.142Z,50.51
2024-05-09T04:24:35.044Z,50.59
2024-05-09T04:25:35.094Z,51.08
2024-05-09T04:26:35.135Z,51.72
2024-05-09T04:27:35.066Z,51.28
2024-05-09T04:28:35.028Z,52.13
2024-05-09T04:29:35.073Z,52.00
2024-05-09T04:30:39.205Z,53.80
2024-05-09T04:31:47.205Z,50.00
2024-05-09T04:32:47.304Z,50.00
2024-05-09T04:33:47.259Z,50.00
2024-05-09T04:34:47.228Z,50.00
2024-05-09T04:35:47.202Z,50.00
2024-05-09T04:36:47.145Z,50.00
2024-05-09T04:37:47.180Z,51.41
2024-05-09T04:38:47.201Z,50.28
2024-05-09T04:39:47.257Z,50.09
2024-05-09T04:40:47.369Z,51.25
2024-05-09T04:41:47.456Z,51.56
2024-05-09T04:42:47.524Z,52.29
2024-05-09T04:43:47.607Z,51.14
2024-05-09T04:44:47.703Z,50.97
2024-05-09T04:45:47.790Z,51.60
2024-05-09T04:46:47.964Z,51.17
2024-05-09T04:47:48.318Z,51.07
2024-05-09T04:48:48.224Z,50.00
2024-05-09T04:49:48.245Z,51.07
2024-05-09T04:50:48.376Z,51.78
2024-05-09T04:51:48.402Z,53.57
2024-05-09T04:52:48.537Z,51.05
2024-05-09T04:53:48.706Z,50.18
2024-05-09T04:54:48.718Z,50.31
2024-05-09T04:55:48.832Z,51.75
2024-05-09T04:56:48.899Z,52.28
2024-05-09T04:57:49.002Z,51.90
2024-05-09T04:58:49.102Z,50.25
2024-05-09T04:59:49.178Z,51.41
2024-05-09T05:00:49.307Z,52.57
2024-05-09T05:01:49.606Z,51.41
2024-05-09T05:02:49.592Z,51.41
2024-05-09T05:03:49.808Z,50.04
2024-05-09T05:04:49.974Z,52.08
2024-05-09T05:05:49.859Z,50.65
2024-05-09T05:06:49.882Z,51.91
2024-05-09T05:07:49.998Z,51.63
2024-05-09T05:08:50.022Z,52.66
2024-05-09T05:09:50.119Z,50.65
2024-05-09T05:10:50.400Z,51.02
2024-05-09T05:11:50.388Z,50.00
2024-05-09T05:12:50.392Z,51.61
2024-05-09T05:13:50.501Z,51.53
2024-05-09T05:14:50.547Z,50.34
2024-05-09T05:15:50.666Z,50.07
2024-05-09T05:16:50.761Z,52.48
2024-05-09T05:17:50.976Z,52.69
2024-05-09T05:18:50.980Z,52.59
2024-05-09T05:19:51.134Z,52.39
2024-05-09T05:20:51.394Z,55.75
2024-05-09T05:21:51.107Z,54.33
2024-05-09T05:22:51.226Z,54.54
2024-05-09T05:23:51.194Z,54.73
2024-05-09T05:24:51.272Z,54.29
2024-05-09T05:25:51.388Z,51.52
2024-05-09T05:26:51.330Z,53.48
2024-05-09T05:27:51.375Z,50.39
2024-05-09T05:28:51.451Z,50.00
2024-05-09T05:29:51.483Z,55.43
2024-05-09T05:30:51.535Z,50.93
2024-05-09T05:32:28.001Z,50.00
2024-05-09T05:33:28.160Z,50.00
2024-05-09T05:34:27.869Z,50.00
2024-05-09T05:35:28.030Z,50.00
2024-05-09T05:36:27.877Z,50.00
2024-05-09T05:37:27.862Z,51.57
2024-05-09T05:38:28.619Z,51.84
2024-05-09T05:39:27.847Z,50.00
2024-05-09T05:40:35.016Z,50.00
2024-05-09T05:41:28.988Z,50.09
2024-05-09T05:42:27.825Z,49.89
2024-05-09T05:43:27.815Z,48.53
2024-05-09T05:44:27.959Z,49.32
2024-05-09T05:45:27.788Z,48.80
2024-05-09T05:46:27.785Z,49.25
2024-05-09T05:47:27.947Z,51.41
2024-05-09T05:48:27.865Z,51.36
2024-05-09T05:49:27.817Z,50.13
2024-05-09T05:50:34.951Z,52.27
2024-05-09T05:51:28.747Z,52.33
2024-05-09T05:52:27.739Z,49.71
2024-05-09T05:53:27.759Z,51.88
2024-05-09T05:54:27.730Z,47.26
2024-05-09T05:55:27.694Z,45.52
2024-05-09T05:56:27.796Z,50.56
2024-05-09T05:57:27.808Z,51.66
2024-05-09T05:58:27.650Z,52.47
2024-05-09T05:59:27.663Z,50.46
2024-05-09T06:00:34.447Z,51.12
2024-05-09T06:01:28.681Z,51.17
2024-05-09T06:02:27.696Z,51.25
2024-05-09T06:03:27.654Z,50.34
2024-05-09T06:04:27.678Z,47.70
2024-05-09T06:05:27.890Z,47.62
2024-05-09T06:06:27.602Z,51.28
2024-05-09T06:07:27.606Z,50.00
2024-05-09T06:08:30.269Z,53.11
2024-05-09T06:09:27.581Z,57.19
2024-05-09T06:10:35.094Z,56.36
2024-05-09T06:11:28.666Z,56.55
2024-05-09T06:12:27.631Z,56.68
2024-05-09T06:13:27.540Z,55.57
2024-05-09T06:14:27.714Z,53.80
2024-05-09T06:15:27.523Z,54.86
2024-05-09T06:16:27.559Z,53.39
2024-05-09T06:17:27.634Z,50.95
2024-05-09T06:18:27.667Z,52.87
2024-05-09T06:19:27.596Z,50.24
2024-05-09T06:20:34.951Z,50.62
2024-05-09T06:21:28.572Z,50.67
2024-05-09T06:22:27.524Z,50.77
2024-05-09T06:23:28.075Z,50.73
2024-05-09T06:24:27.507Z,49.81
2024-05-09T06:25:27.480Z,53.90
2024-05-09T06:26:27.506Z,56.14
2024-05-09T06:27:27.486Z,56.69
2024-05-09T06:28:27.507Z,54.66
2024-05-09T06:29:27.715Z,51.88
2024-05-09T06:30:36.587Z,51.28
2024-05-09T06:31:28.448Z,51.23
2024-05-09T06:32:27.563Z,51.18
2024-05-09T06:33:27.678Z,50.89
2024-05-09T06:34:27.535Z,48.22
2024-05-09T06:35:27.553Z,45.76
2024-05-09T06:36:27.460Z,50.80
2024-05-09T06:37:27.460Z,53.76
2024-05-09T06:38:27.680Z,50.31
2024-05-09T06:39:27.480Z,51.12
2024-05-09T06:40:35.781Z,52.13
2024-05-09T06:41:28.559Z,52.21
2024-05-09T06:42:27.516Z,50.19
2024-05-09T06:43:27.522Z,49.90
2024-05-09T06:44:27.701Z,47.06
2024-05-09T06:45:27.519Z,47.06
2024-05-09T06:46:27.521Z,52.94
2024-05-09T06:47:27.617Z,52.65
2024-05-09T06:48:27.693Z,52.26
2024-05-09T06:49:27.621Z,53.84
2024-05-09T06:50:31.220Z,55.51
2024-05-09T06:51:28.581Z,55.64
2024-05-09T06:52:27.566Z,56.23
2024-05-09T06:53:27.597Z,56.45
2024-05-09T06:54:27.587Z,56.73
2024-05-09T06:55:27.613Z,53.11
2024-05-09T06:56:27.625Z,50.22
2024-05-09T06:57:27.602Z,51.99
2024-05-09T06:58:27.624Z,51.48
2024-05-09T06:59:27.656Z,53.75
2024-05-09T07:00:35.480Z,50.16
2024-05-09T07:01:28.837Z,50.27
2024-05-09T07:02:28.627Z,49.32
2024-05-09T07:03:27.863Z,48.67
2024-05-09T07:04:27.774Z,46.51
2024-05-09T07:05:28.656Z,42.98
2024-05-09T07:06:27.691Z,50.97
2024-05-09T07:07:27.700Z,51.21
2024-05-09T07:08:27.791Z,50.61
2024-05-09T07:09:27.715Z,51.98
2024-05-09T07:10:32.916Z,50.12
2024-05-09T07:11:28.780Z,50.14
2024-05-09T07:12:27.794Z,49.39
2024-05-09T07:13:27.742Z,47.23
2024-05-09T07:14:27.784Z,47.67
2024-05-09T07:15:27.718Z,46.48
2024-05-09T07:16:27.747Z,53.01
2024-05-09T07:17:27.925Z,52.91
2024-05-09T07:18:28.056Z,50.36
2024-05-09T07:19:27.977Z,51.41
2024-05-09T07:20:34.116Z,50.84
2024-05-09T07:21:28.761Z,50.93
2024-05-09T07:22:27.765Z,49.31
2024-05-09T07:23:27.817Z,45.58
2024-05-09T07:24:27.785Z,45.52
2024-05-09T07:25:27.787Z,44.81
2024-05-09T07:26:27.896Z,51.78
2024-05-09T07:27:27.790Z,50.00
2024-05-09T07:28:27.792Z,50.84
2024-05-09T07:29:27.958Z,51.24
2024-05-09T07:30:33.230Z,50.54
2024-05-09T07:31:28.816Z,50.15
2024-05-09T07:32:27.994Z,48.71
2024-05-09T07:33:27.898Z,47.37
2024-05-09T07:34:27.922Z,44.51
2024-05-09T07:35:28.045Z,41.04
2024-05-09T07:36:27.824Z,50.15
2024-05-09T07:37:27.843Z,50.71
2024-05-09T07:38:27.863Z,50.00
2024-05-09T07:39:27.811Z,52.47
2024-05-09T07:40:34.590Z,51.38
2024-05-09T07:41:28.926Z,51.41
2024-05-09T07:42:27.832Z,48.35
2024-05-09T07:43:27.847Z,44.88
2024-05-09T07:44:27.953Z,44.88
2024-05-09T07:45:44.964Z,42.13
2024-05-09T07:47:36.814Z,43.69
2024-05-09T07:48:57.151Z,46.00
2024-05-09T07:50:01.059Z,46.83
2024-05-09T07:53:32.389Z,41.35
2024-05-09T07:53:39.981Z,42.32
2024-05-09T07:54:28.941Z,40.13
2024-05-09T07:55:28.029Z,37.93
2024-05-09T07:56:28.218Z,34.24
2024-05-09T07:57:27.862Z,31.93
2024-05-09T07:58:28.039Z,30.26
2024-05-09T07:59:27.814Z,45.83
2024-05-09T08:00:31.471Z,51.07
2024-05-09T08:01:27.935Z,51.11
2024-05-09T08:02:27.960Z,49.59
2024-05-09T08:03:27.915Z,45.09
2024-05-09T08:04:27.789Z,42.20
2024-05-09T08:05:27.906Z,43.01
2024-05-09T08:06:27.766Z,50.00
2024-05-09T08:07:27.691Z,50.00
2024-05-09T08:08:27.691Z,50.95
2024-05-09T08:09:27.743Z,50.43
2024-05-09T08:10:29.168Z,51.52
2024-05-09T08:11:27.664Z,52.13
2024-05-09T08:12:27.636Z,50.00
2024-05-09T08:13:27.626Z,50.00
2024-05-09T08:14:27.569Z,50.00
2024-05-09T08:15:27.642Z,53.00
2024-05-09T08:16:27.725Z,51.17
2024-05-09T08:17:27.624Z,50.18
2024-05-09T08:18:27.677Z,50.21
2024-05-09T08:19:27.579Z,50.00
2024-05-09T08:20:33.411Z,50.75
2024-05-09T08:21:28.511Z,50.89
2024-05-09T08:22:27.458Z,51.18
2024-05-09T08:23:27.465Z,52.27
2024-05-09T08:24:28.087Z,51.96
2024-05-09T08:25:27.519Z,51.12
2024-05-09T08:26:27.415Z,53.48
2024-05-09T08:27:27.437Z,53.83
2024-05-09T08:28:27.455Z,53.60
2024-05-09T08:29:27.390Z,52.73
2024-05-09T08:30:33.659Z,53.76
2024-05-09T08:31:28.570Z,53.83
2024-05-09T08:32:27.560Z,53.85
2024-05-09T08:33:27.633Z,51.71
2024-05-09T08:34:27.528Z,51.26
2024-05-09T08:35:27.376Z,49.72
2024-05-09T08:36:27.420Z,51.34
2024-05-09T08:37:31.093Z,52.75
2024-05-09T08:38:28.361Z,51.64
2024-05-09T08:39:27.354Z,49.58
2024-05-09T08:40:33.605Z,50.45
2024-05-09T08:41:28.325Z,50.76
2024-05-09T08:42:27.293Z,48.74
2024-05-09T08:43:27.334Z,49.75
2024-05-09T08:44:27.262Z,48.89
2024-05-09T08:45:27.332Z,47.50
2024-05-09T08:46:27.381Z,47.59
2024-05-09T08:47:27.361Z,44.25
2024-05-09T08:48:27.379Z,48.59
2024-05-09T08:49:27.294Z,50.07
2024-05-09T08:50:35.608Z,50.72
2024-05-09T08:51:28.283Z,50.92
2024-05-09T08:52:27.174Z,51.23
2024-05-09T08:53:27.163Z,51.73
2024-05-09T08:54:27.201Z,51.33
2024-05-09T08:55:27.134Z,49.67
2024-05-09T08:56:27.124Z,50.47
2024-05-09T08:57:27.209Z,50.07
2024-05-09T08:58:27.131Z,50.59
2024-05-09T08:59:27.115Z,50.89
2024-05-09T09:00:34.138Z,51.25
2024-05-09T09:01:28.171Z,49.14
2024-05-09T09:02:27.168Z,51.07
2024-05-09T09:03:27.194Z,46.18
2024-05-09T09:04:27.112Z,46.19
2024-05-09T09:05:27.291Z,48.04
2024-05-09T09:06:27.147Z,50.95
2024-05-09T09:07:27.159Z,51.51
2024-05-09T09:08:26.966Z,50.89
2024-05-09T09:09:27.071Z,51.28
2024-05-09T09:10:31.994Z,53.37
2024-05-09T09:11:27.975Z,53.23
2024-05-09T09:12:26.951Z,51.65
2024-05-09T09:13:26.910Z,49.19
2024-05-09T09:14:26.886Z,48.70
2024-05-09T09:15:27.006Z,46.37
2024-05-09T09:16:26.922Z,50.17
2024-05-09T09:17:26.930Z,50.00
2024-05-09T09:18:27.327Z,50.00
2024-05-09T09:19:26.976Z,52.30
2024-05-09T09:20:33.984Z,52.82
2024-05-09T09:21:27.811Z,52.85
2024-05-09T09:22:26.801Z,52.99
2024-05-09T09:23:26.744Z,51.21
2024-05-09T09:24:26.808Z,50.05
2024-05-09T09:25:26.733Z,48.33
2024-05-09T09:26:26.711Z,51.00
2024-05-09T09:27:26.738Z,52.00
2024-05-09T09:28:26.690Z,50.44
2024-05-09T09:29:26.678Z,50.10
2024-05-09T09:30:35.360Z,52.07
2024-05-09T09:31:27.828Z,51.11
2024-05-09T09:32:26.752Z,51.48
2024-05-09T09:33:26.760Z,46.55
2024-05-09T09:34:26.735Z,41.77
2024-05-09T09:35:26.648Z,41.80
2024-05-09T09:36:26.646Z,51.59
2024-05-09T09:37:26.628Z,51.19
2024-05-09T09:38:26.591Z,52.57
2024-05-09T09:39:26.574Z,51.52
2024-05-09T09:40:31.967Z,51.23
2024-05-09T09:41:27.611Z,51.25
2024-05-09T09:42:26.607Z,51.32
2024-05-09T09:43:26.668Z,48.34
2024-05-09T09:44:26.555Z,47.04
2024-05-09T09:45:26.578Z,47.71
2024-05-09T09:46:26.708Z,53.86
2024-05-09T09:47:26.593Z,52.73
2024-05-09T09:48:26.572Z,53.33
2024-05-09T09:49:26.539Z,53.16
2024-05-09T09:50:33.505Z,54.00
2024-05-09T09:51:27.590Z,54.06
2024-05-09T09:52:26.517Z,50.45
2024-05-09T09:53:26.441Z,47.63
2024-05-09T09:54:26.436Z,45.07
2024-05-09T09:55:26.450Z,45.11
2024-05-09T09:56:26.371Z,51.00
2024-05-09T09:57:26.370Z,51.21
2024-05-09T09:58:26.668Z,50.96
2024-05-09T09:59:26.307Z,48.93
2024-05-09T10:00:30.698Z,47.58
2024-05-09T10:01:27.416Z,51.08
2024-05-09T10:02:26.398Z,48.62
2024-05-09T10:03:26.397Z,46.05
2024-05-09T10:04:26.353Z,43.85
2024-05-09T10:05:26.578Z,41.62
2024-05-09T10:06:26.224Z,50.01
2024-05-09T10:07:26.236Z,50.33
2024-05-09T10:08:26.180Z,52.03
2024-05-09T10:09:26.173Z,52.40
2024-05-09T10:10:32.154Z,54.11
2024-05-09T10:11:27.307Z,54.22
2024-05-09T10:12:26.238Z,54.72
2024-05-09T10:13:26.337Z,54.58
2024-05-09T10:14:26.168Z,54.24
2024-05-09T10:15:26.149Z,53.50
2024-05-09T10:16:26.186Z,51.80
2024-05-09T10:17:26.179Z,50.10
2024-05-09T10:18:29.217Z,50.14
2024-05-09T10:19:27.178Z,50.27
2024-05-09T10:20:30.848Z,49.57
2024-05-09T10:21:27.077Z,50.17
2024-05-09T10:22:26.119Z,49.33
2024-05-09T10:23:26.014Z,47.67
2024-05-09T10:24:25.991Z,44.84
2024-05-09T10:25:26.006Z,44.10
2024-05-09T10:26:25.972Z,51.06
2024-05-09T10:27:25.957Z,52.00
2024-05-09T10:28:25.964Z,51.28
2024-05-09T10:29:25.930Z,53.47
2024-05-09T10:30:33.672Z,51.48
2024-05-09T10:31:27.004Z,51.54
2024-05-09T10:32:26.010Z,51.78
2024-05-09T10:33:26.022Z,53.72
2024-05-09T10:34:26.256Z,54.32
2024-05-09T10:35:25.913Z,55.71
2024-05-09T10:36:25.897Z,56.53
2024-05-09T10:37:25.932Z,54.27
2024-05-09T10:38:25.863Z,54.91
2024-05-09T10:39:25.921Z,51.70
2024-05-09T10:40:31.056Z,53.27
2024-05-09T10:41:26.896Z,52.46
2024-05-09T10:42:25.887Z,50.09
2024-05-09T10:43:25.898Z,49.15
2024-05-09T10:44:25.803Z,49.76
2024-05-09T10:45:25.820Z,48.03
2024-05-09T10:46:25.839Z,50.00
2024-05-09T10:47:25.870Z,51.35
2024-05-09T10:48:25.847Z,52.59
2024-05-09T10:49:25.930Z,54.25
2024-05-09T10:50:29.103Z,51.03
2024-05-09T10:51:26.827Z,51.13
2024-05-09T10:52:25.795Z,51.54
2024-05-09T10:53:25.778Z,52.04
2024-05-09T10:54:25.759Z,53.59
2024-05-09T10:55:25.899Z,53.33
2024-05-09T10:56:25.727Z,56.35
2024-05-09T10:57:25.703Z,53.72
2024-05-09T10:58:25.686Z,53.37
2024-05-09T10:59:25.710Z,50.00
2024-05-09T11:00:33.084Z,50.72
2024-05-09T11:01:26.792Z,50.79
2024-05-09T11:02:25.876Z,49.90
2024-05-09T11:03:25.859Z,48.68
2024-05-09T11:04:25.720Z,47.97
2024-05-09T11:05:25.758Z,50.43
2024-05-09T11:06:25.658Z,50.63
2024-05-09T11:07:25.665Z,50.82
2024-05-09T11:08:25.598Z,52.96
2024-05-09T11:09:25.581Z,54.19
2024-05-09T11:10:33.330Z,54.25
2024-05-09T11:11:26.666Z,54.28
2024-05-09T11:12:25.642Z,54.28
2024-05-09T11:13:25.646Z,53.92
2024-05-09T11:14:25.592Z,51.57
2024-05-09T11:15:25.564Z,53.04
2024-05-09T11:16:25.595Z,52.32
2024-05-09T11:17:25.682Z,52.73
2024-05-09T11:18:26.728Z,50.66
2024-05-09T11:19:25.732Z,53.04
2024-05-09T11:20:29.695Z,50.90
2024-05-09T11:21:25.532Z,50.95
2024-05-09T11:22:25.610Z,48.58
2024-05-09T11:23:25.482Z,48.76
2024-05-09T11:24:25.477Z,46.90
2024-05-09T11:25:25.573Z,50.49
2024-05-09T11:26:25.568Z,51.58
2024-05-09T11:27:25.415Z,51.42
2024-05-09T11:28:25.455Z,51.38
2024-05-09T11:29:25.375Z,51.06
2024-05-09T11:30:30.172Z,52.25
2024-05-09T11:31:26.504Z,51.71
2024-05-09T11:32:25.549Z,52.32
2024-05-09T11:33:25.343Z,49.96
2024-05-09T11:34:25.388Z,47.46
2024-05-09T11:35:25.243Z,48.92
2024-05-09T11:36:25.291Z,53.08
2024-05-09T11:37:25.322Z,50.90
2024-05-09T11:38:25.245Z,52.42
2024-05-09T11:39:25.279Z,51.99
2024-05-09T11:40:28.643Z,53.61
2024-05-09T11:41:26.190Z,53.69
2024-05-09T11:42:25.176Z,54.21
2024-05-09T11:43:25.182Z,53.40
2024-05-09T11:44:25.111Z,54.10
2024-05-09T11:45:25.106Z,51.76
2024-05-09T11:46:25.142Z,54.67
2024-05-09T11:47:25.228Z,54.25
2024-05-09T11:48:25.471Z,50.00
2024-05-09T11:49:27.029Z,52.03
2024-05-09T11:50:29.979Z,51.12
2024-05-09T11:51:26.036Z,51.09
2024-05-09T11:52:25.036Z,51.16
2024-05-09T11:53:24.990Z,48.15
2024-05-09T11:54:24.941Z,46.05
2024-05-09T11:55:27.549Z,43.79
2024-05-09T11:56:24.927Z,50.00
2024-05-09T11:57:25.682Z,50.23
2024-05-09T11:58:24.929Z,50.43
2024-05-09T11:59:24.890Z,50.00
2024-05-09T12:00:33.206Z,50.00
2024-05-09T12:01:27.918Z,50.04
2024-05-09T12:02:24.839Z,50.20
2024-05-09T12:03:24.846Z,50.42
2024-05-09T12:04:24.915Z,49.36
2024-05-09T12:05:24.892Z,46.92
2024-05-09T12:06:24.693Z,50.00
2024-05-09T12:07:24.732Z,51.81
2024-05-09T12:08:24.674Z,50.00
2024-05-09T12:09:24.657Z,50.96
2024-05-09T12:10:32.121Z,51.39
2024-05-09T12:11:25.640Z,50.43
2024-05-09T12:12:24.586Z,42.24
2024-05-09T12:13:24.718Z,43.13
2024-05-09T12:14:24.557Z,40.81
2024-05-09T12:15:24.535Z,42.27
2024-05-09T12:16:24.867Z,50.51
2024-05-09T12:17:24.604Z,52.12
2024-05-09T12:18:24.553Z,50.00
2024-05-09T12:19:24.604Z,51.71
2024-05-09T12:20:32.388Z,51.44
2024-05-09T12:21:25.478Z,51.46
2024-05-09T12:22:24.504Z,50.92
2024-05-09T12:23:24.442Z,51.88
2024-05-09T12:24:24.419Z,50.56
2024-05-09T12:25:24.434Z,50.08
2024-05-09T12:26:24.378Z,50.89
2024-05-09T12:27:24.377Z,50.32
2024-05-09T12:28:24.623Z,51.42
2024-05-09T12:29:24.319Z,51.95
2024-05-09T12:30:33.263Z,51.99
2024-05-09T12:31:25.452Z,52.04
2024-05-09T12:32:24.400Z,52.32
2024-05-09T12:33:24.534Z,50.52
2024-05-09T12:34:24.326Z,51.34
2024-05-09T12:35:24.198Z,52.84
2024-05-09T12:36:24.204Z,53.04
2024-05-09T12:37:24.231Z,51.71
2024-05-09T12:38:24.182Z,50.12
2024-05-09T12:39:24.170Z,50.30
2024-05-09T12:40:31.851Z,53.25
2024-05-09T12:41:25.123Z,53.11
2024-05-09T12:42:27.459Z,52.63
2024-05-09T12:43:24.194Z,53.34
2024-05-09T12:44:24.077Z,53.52
2024-05-09T12:45:24.056Z,53.89
2024-05-09T12:46:24.131Z,55.73
2024-05-09T12:47:24.119Z,56.23
2024-05-09T12:48:24.189Z,53.82
2024-05-09T12:49:24.253Z,53.52
2024-05-09T12:50:31.064Z,53.18
2024-05-09T12:51:25.041Z,53.22